Time;durP1;ratioP1;P1;durP2;ratioP2;P2;SDS_P1;SDS_P2;PMS_P1;PMS_P2;Temp;Humidity;BMP_temperature;BMP_pressure;BME280_temperature;BME280_humidity;BME280_pressure;Samples;Min_cycle;Max_cycle;Signal;HPM_P1;HPM_P2
2024/04/19 00:00:23;;;;;;;1.90;1.10;;;14.00;72.30;;;;;;4467369;26;20053;-49
2024/04/19 00:03:06;;;;;;;1.60;1.00;;;14.00;72.50;;;;;;4476907;26;20017;-48
2024/04/19 00:05:50;;;;;;;1.67;1.13;;;14.00;72.90;;;;;;4470976;26;20010;-48
2024/04/19 00:08:46;;;;;;;2.25;1.30;;;14.00;72.90;;;;;;4460298;26;20011;-49
2024/04/19 00:11:29;;;;;;;1.63;1.17;;;14.00;72.90;;;;;;4454054;26;20011;-48
2024/04/19 00:14:15;;;;;;;1.95;0.80;;;14.00;73.10;;;;;;4474658;26;20046;-49
2024/04/19 00:16:56;;;;;;;0.90;0.90;;;14.00;73.10;;;;;;4453732;26;20014;-54
2024/04/19 00:19:41;;;;;;;2.08;1.20;;;14.00;73.20;;;;;;4461952;26;20014;-52
2024/04/19 00:22:22;;;;;;;2.58;1.17;;;14.00;73.50;;;;;;4457546;26;20014;-52
2024/04/19 00:25:09;;;;;;;2.55;1.20;;;14.00;73.20;;;;;;4459366;26;20076;-51
2024/04/19 00:27:49;;;;;;;1.85;1.45;;;14.00;73.30;;;;;;4445254;26;20032;-54
2024/04/19 00:30:32;;;;;;;1.63;1.20;;;14.00;73.40;;;;;;4458264;26;20073;-54
2024/04/19 00:33:15;;;;;;;1.60;0.93;;;14.00;73.40;;;;;;4458308;26;20006;-53
2024/04/19 00:36:02;;;;;;;1.40;1.30;;;14.00;73.60;;;;;;4461553;26;20019;-52
2024/04/19 00:38:42;;;;;;;1.20;1.10;;;14.00;73.80;;;;;;4459729;26;20453;-53
2024/04/19 00:41:25;;;;;;;1.50;1.27;;;14.00;73.90;;;;;;4484496;26;20091;-47
2024/04/19 00:44:06;;;;;;;1.60;1.50;;;14.00;74.00;;;;;;4493721;26;20084;-47
2024/04/19 00:46:49;;;;;;;1.45;1.20;;;14.00;73.90;;;;;;4509642;26;20052;-48
2024/04/19 00:49:43;;;;;;;1.52;1.33;;;13.90;73.70;;;;;;4492065;26;20014;-49
2024/04/19 00:52:31;;;;;;;2.00;1.17;;;13.90;73.80;;;;;;4491727;26;20434;-46
2024/04/19 00:55:12;;;;;;;1.85;1.20;;;13.90;73.90;;;;;;4465527;26;20326;-49
2024/04/19 00:57:55;;;;;;;1.95;1.38;;;13.90;74.00;;;;;;4462151;26;20057;-47
2024/04/19 01:00:36;;;;;;;3.97;1.17;;;13.90;74.20;;;;;;4465479;26;20018;-50
2024/04/19 01:03:20;;;;;;;2.85;1.58;;;13.90;74.30;;;;;;4465842;26;20039;-48
2024/04/19 01:06:01;;;;;;;3.10;1.50;;;13.90;74.30;;;;;;4490329;26;20010;-47
2024/04/19 01:08:47;;;;;;;2.03;1.80;;;13.90;74.30;;;;;;4479160;26;20006;-46
2024/04/19 01:11:44;;;;;;;3.78;1.13;;;13.90;74.40;;;;;;4455978;26;20269;-47
2024/04/19 01:14:27;;;;;;;1.40;1.17;;;13.90;74.50;;;;;;4508164;26;20018;-48
2024/04/19 01:17:08;;;;;;;3.38;1.30;;;13.90;74.70;;;;;;4490586;26;20014;-47
2024/04/19 01:19:51;;;;;;;2.40;1.20;;;13.90;74.80;;;;;;4491454;26;20022;-47
2024/04/19 01:22:48;;;;;;;2.15;1.23;;;13.90;75.70;;;;;;4496373;26;20069;-46
2024/04/19 01:25:36;;;;;;;2.65;1.58;;;13.90;74.80;;;;;;4488837;26;20014;-47
2024/04/19 01:28:22;;;;;;;3.33;1.25;;;13.90;74.60;;;;;;4484424;26;20011;-46
2024/04/19 01:31:03;;;;;;;1.08;0.98;;;13.90;74.60;;;;;;4472785;26;20043;-46
2024/04/19 01:33:47;;;;;;;1.88;1.77;;;13.90;74.80;;;;;;4464284;26;20128;-46
2024/04/19 01:36:28;;;;;;;2.28;1.30;;;13.90;74.90;;;;;;4466372;26;20076;-47
2024/04/19 01:39:11;;;;;;;3.13;0.95;;;13.90;75.00;;;;;;4473619;26;20047;-46
2024/04/19 01:41:55;;;;;;;3.45;1.23;;;13.80;75.00;;;;;;4495712;26;20333;-47
2024/04/19 01:44:40;;;;;;;1.35;1.25;;;13.90;75.20;;;;;;4461116;26;20026;-52
2024/04/19 01:47:21;;;;;;;1.83;1.38;;;13.80;75.20;;;;;;4463521;26;20010;-53
2024/04/19 01:50:05;;;;;;;1.10;1.10;;;13.80;75.20;;;;;;4462968;26;20366;-49
2024/04/19 01:52:46;;;;;;;1.52;1.00;;;13.80;75.30;;;;;;4470780;26;20827;-55
2024/04/19 01:55:29;;;;;;;0.83;0.83;;;13.80;75.60;;;;;;4495474;26;20060;-54
2024/04/19 01:58:09;;;;;;;0.98;0.90;;;13.80;75.60;;;;;;4495441;26;20784;-52
2024/04/19 02:00:55;;;;;;;1.02;1.00;;;13.80;75.80;;;;;;4464659;26;20072;-55
2024/04/19 02:03:41;;;;;;;0.88;0.80;;;13.80;75.60;;;;;;4460514;26;20006;-55
2024/04/19 02:06:21;;;;;;;1.30;0.90;;;13.80;75.70;;;;;;4489901;26;20013;-55
2024/04/19 02:09:06;;;;;;;1.23;0.85;;;13.80;75.70;;;;;;4494312;26;20022;-57
2024/04/19 02:11:49;;;;;;;0.57;0.57;;;13.80;75.90;;;;;;4492726;26;20013;-47
2024/04/19 02:14:32;;;;;;;0.93;0.65;;;13.80;76.00;;;;;;4489930;26;20083;-46
2024/04/19 02:17:18;;;;;;;0.57;0.57;;;13.80;76.10;;;;;;4490983;26;20032;-49
2024/04/19 02:19:59;;;;;;;0.47;0.47;;;13.80;76.10;;;;;;4493574;26;20014;-46
2024/04/19 02:22:42;;;;;;;0.52;0.47;;;13.80;76.20;;;;;;4494623;26;20075;-46
2024/04/19 02:25:23;;;;;;;0.68;0.60;;;13.80;76.20;;;;;;4495450;26;20053;-48
2024/04/19 02:31:20;;;;;;;0.50;0.32;;;13.70;76.40;;;;;;4433251;26;20529;-46
2024/04/19 02:34:06;;;;;;;0.32;0.32;;;13.70;76.50;;;;;;4429035;26;20015;-55
2024/04/19 02:36:50;;;;;;;0.40;0.40;;;13.70;76.60;;;;;;4460148;26;20492;-55
2024/04/19 02:39:33;;;;;;;0.52;0.40;;;13.70;76.60;;;;;;4452521;26;20036;-55
2024/04/19 02:42:17;;;;;;;0.60;0.60;;;13.70;76.60;;;;;;4469624;26;20009;-55
2024/04/19 02:45:08;;;;;;;0.68;0.50;;;13.70;76.70;;;;;;4493053;26;20337;-54
2024/04/19 02:47:52;;;;;;;1.13;0.30;;;13.70;76.60;;;;;;4496160;26;20014;-53
2024/04/19 02:50:37;;;;;;;1.65;0.35;;;13.70;76.70;;;;;;4447539;26;20343;-55
2024/04/19 02:53:31;;;;;;;0.40;0.40;;;13.70;76.80;;;;;;4475905;26;20029;-53
2024/04/19 02:56:15;;;;;;;1.50;0.40;;;13.70;76.90;;;;;;4493577;26;20087;-55
2024/04/19 02:58:58;;;;;;;0.20;0.20;;;13.70;77.00;;;;;;4469765;26;20011;-54
2024/04/19 03:01:41;;;;;;;0.47;0.47;;;13.70;77.00;;;;;;4486023;26;20078;-55
2024/04/19 03:04:24;;;;;;;0.20;0.20;;;13.70;77.20;;;;;;4494135;26;20030;-54
2024/04/19 03:07:10;;;;;;;0.30;0.30;;;13.70;77.30;;;;;;4466374;26;20014;-54
2024/04/19 03:09:53;;;;;;;0.20;0.20;;;13.70;77.40;;;;;;4464537;26;20014;-55
2024/04/19 03:12:37;;;;;;;0.80;0.30;;;13.70;77.50;;;;;;4465199;26;20013;-53
2024/04/19 03:15:20;;;;;;;0.43;0.20;;;13.70;77.60;;;;;;4472679;26;20018;-52
2024/04/19 03:18:03;;;;;;;0.70;0.47;;;13.70;77.70;;;;;;4482037;26;20433;-52
2024/04/19 03:20:46;;;;;;;0.20;0.20;;;13.70;77.80;;;;;;4467695;26;20017;-52
2024/04/19 03:23:32;;;;;;;0.20;0.20;;;13.70;77.80;;;;;;4489244;26;20013;-52
2024/04/19 03:26:15;;;;;;;0.80;0.28;;;13.70;77.90;;;;;;4491430;26;20039;-55
2024/04/19 03:28:58;;;;;;;0.50;0.20;;;13.70;78.00;;;;;;4485155;26;20010;-46
2024/04/19 03:31:41;;;;;;;0.63;0.30;;;13.70;78.10;;;;;;4464612;26;20010;-47
2024/04/19 03:34:25;;;;;;;0.20;0.20;;;13.70;78.20;;;;;;4462624;26;20076;-50
2024/04/19 03:37:08;;;;;;;0.20;0.20;;;13.70;78.20;;;;;;4463983;26;20075;-50
2024/04/19 03:39:54;;;;;;;0.30;0.30;;;13.70;78.30;;;;;;4459458;26;20014;-55
2024/04/19 03:42:45;;;;;;;0.35;0.30;;;13.70;78.40;;;;;;4461527;26;20353;-57
2024/04/19 03:45:41;;;;;;;0.40;0.40;;;13.70;78.40;;;;;;4456252;26;20092;-48
2024/04/19 03:48:24;;;;;;;0.20;0.20;;;13.70;78.40;;;;;;4463101;26;20092;-56
2024/04/19 03:51:08;;;;;;;2.40;0.60;;;13.70;78.50;;;;;;4487992;26;20009;-56
2024/04/19 03:53:51;;;;;;;1.58;0.60;;;13.70;78.70;;;;;;4485562;26;20014;-54
2024/04/19 03:56:37;;;;;;;0.65;0.50;;;13.70;78.70;;;;;;4463502;26;20452;-54
2024/04/19 03:59:21;;;;;;;0.60;0.60;;;13.70;78.80;;;;;;4461330;26;20018;-47
2024/04/19 04:02:24;;;;;;;1.75;0.70;;;13.70;78.90;;;;;;4459042;26;20014;-49
2024/04/19 04:05:13;;;;;;;2.25;0.80;;;13.60;78.80;;;;;;4461910;26;20018;-54
2024/04/19 04:07:56;;;;;;;2.10;0.80;;;13.60;79.80;;;;;;4463797;26;20072;-47
2024/04/19 04:10:39;;;;;;;2.95;1.00;;;13.60;79.00;;;;;;4453957;26;20014;-47
2024/04/19 04:13:25;;;;;;;5.57;1.20;;;13.60;79.10;;;;;;4459130;26;20018;-46
2024/04/19 04:16:10;;;;;;;3.67;1.10;;;13.70;79.40;;;;;;4483282;26;20022;-48
2024/04/19 04:18:53;;;;;;;4.82;1.23;;;13.70;79.40;;;;;;4468282;26;20018;-49
2024/04/19 04:21:36;;;;;;;1.50;1.02;;;13.60;79.30;;;;;;4457939;26;20018;-49
2024/04/19 04:24:19;;;;;;;6.07;1.42;;;13.60;79.40;;;;;;4461657;26;20014;-47
2024/04/19 04:27:03;;;;;;;12.88;1.65;;;13.60;79.50;;;;;;4464735;26;20094;-48
2024/04/19 04:29:51;;;;;;;10.77;2.15;;;13.70;79.60;;;;;;4487152;26;20009;-49
2024/04/19 04:32:35;;;;;;;8.00;2.10;;;13.60;79.60;;;;;;4491347;26;20479;-49
2024/04/19 04:35:18;;;;;;;7.18;2.03;;;13.60;79.80;;;;;;4491094;26;20426;-46
2024/04/19 04:38:01;;;;;;;7.45;1.38;;;13.70;79.90;;;;;;4466884;26;20430;-51
2024/04/19 04:40:44;;;;;;;9.10;2.15;;;13.70;80.00;;;;;;4470769;26;20017;-49
2024/04/19 04:43:28;;;;;;;7.68;1.98;;;13.60;80.70;;;;;;4488193;26;20423;-45
2024/04/19 04:46:14;;;;;;;9.75;1.70;;;13.60;80.00;;;;;;4490063;26;20013;-54
2024/04/19 04:48:59;;;;;;;14.98;2.47;;;13.60;80.00;;;;;;4491612;26;20083;-53
2024/04/19 04:51:42;;;;;;;8.23;1.40;;;13.60;80.20;;;;;;4472462;26;20009;-53
2024/04/19 04:54:26;;;;;;;7.28;1.30;;;13.60;80.30;;;;;;4492373;26;20052;-51
2024/04/19 04:57:10;;;;;;;18.25;2.55;;;13.60;80.70;;;;;;4486681;26;20043;-47
2024/04/19 04:59:53;;;;;;;8.13;1.30;;;13.70;81.90;;;;;;4489465;26;20088;-45
2024/04/19 05:02:39;;;;;;;13.65;1.58;;;13.70;81.00;;;;;;4461480;26;20019;-48
2024/04/19 05:05:23;;;;;;;9.07;1.50;;;13.70;81.00;;;;;;4450306;26;20826;-48
2024/04/19 05:08:08;;;;;;;9.32;1.67;;;13.70;80.60;;;;;;4458174;26;20073;-45
2024/04/19 05:10:51;;;;;;;5.32;1.60;;;13.70;80.50;;;;;;4457495;26;20439;-46
2024/04/19 05:13:35;;;;;;;7.53;1.65;;;13.70;80.50;;;;;;4431146;26;20010;-45
2024/04/19 05:16:18;;;;;;;7.88;2.08;;;13.70;80.50;;;;;;4452217;26;20337;-46
2024/04/19 05:19:08;;;;;;;10.52;1.67;;;13.70;80.60;;;;;;4458412;26;20077;-48
2024/04/19 05:21:51;;;;;;;8.15;1.63;;;13.70;80.50;;;;;;4422882;26;20393;-46
2024/04/19 05:24:34;;;;;;;8.30;1.50;;;13.70;80.40;;;;;;4452037;26;20023;-46
2024/04/19 05:27:17;;;;;;;10.00;1.70;;;13.70;80.50;;;;;;4479782;26;20013;-46
2024/04/19 05:30:01;;;;;;;8.90;1.65;;;13.70;80.40;;;;;;4457910;26;20070;-54
2024/04/19 05:32:45;;;;;;;12.27;1.73;;;13.70;80.40;;;;;;4454557;26;20081;-51
2024/04/19 05:35:31;;;;;;;8.63;1.70;;;13.70;80.40;;;;;;4459855;26;20133;-46
2024/04/19 05:38:15;;;;;;;8.95;1.55;;;13.70;80.40;;;;;;4458775;26;20071;-45
2024/04/19 05:40:58;;;;;;;4.97;1.40;;;13.70;80.40;;;;;;4474871;26;20071;-50
2024/04/19 05:43:41;;;;;;;10.50;1.38;;;13.70;80.40;;;;;;4487771;26;20005;-46
2024/04/19 05:46:24;;;;;;;5.43;1.65;;;13.70;80.40;;;;;;4485125;26;20180;-45
2024/04/19 05:49:08;;;;;;;7.50;1.80;;;13.70;80.40;;;;;;4485192;26;20080;-48
2024/04/19 05:51:53;;;;;;;11.63;2.17;;;13.70;80.40;;;;;;4483321;26;20013;-46
2024/04/19 05:54:37;;;;;;;10.93;1.13;;;13.70;80.40;;;;;;4447243;26;20408;-46
2024/04/19 05:57:20;;;;;;;5.57;1.42;;;13.70;80.40;;;;;;4457438;26;20014;-46
2024/04/19 06:00:05;;;;;;;8.93;1.90;;;13.70;80.30;;;;;;4463462;26;20061;-45
2024/04/19 06:02:54;;;;;;;10.85;1.92;;;13.70;80.30;;;;;;4463753;26;20060;-49
2024/04/19 06:05:38;;;;;;;8.23;2.28;;;13.70;80.20;;;;;;4472709;26;20100;-47
2024/04/19 06:08:25;;;;;;;8.25;1.77;;;13.70;80.20;;;;;;4493375;26;20409;-50
2024/04/19 06:11:08;;;;;;;8.55;1.50;;;13.70;80.20;;;;;;4468926;26;20183;-47
2024/04/19 06:13:52;;;;;;;9.85;1.85;;;13.70;80.20;;;;;;4476650;26;20298;-47
2024/04/19 06:16:35;;;;;;;5.85;1.52;;;13.70;80.30;;;;;;4468165;26;20013;-48
2024/04/19 06:19:18;;;;;;;6.80;1.50;;;13.70;80.30;;;;;;4467411;26;20022;-46
2024/04/19 06:22:01;;;;;;;9.15;1.45;;;13.70;80.30;;;;;;4462531;26;20018;-52
2024/04/19 06:24:47;;;;;;;10.68;1.73;;;13.70;80.30;;;;;;4464025;26;20073;-53
2024/04/19 06:27:30;;;;;;;9.23;1.75;;;13.70;80.20;;;;;;4479206;26;20010;-52
2024/04/19 06:30:14;;;;;;;10.38;1.92;;;13.70;80.10;;;;;;4497136;26;20017;-53
2024/04/19 06:32:57;;;;;;;11.07;1.50;;;13.70;80.10;;;;;;4495007;26;20010;-54
2024/04/19 06:35:40;;;;;;;5.82;1.25;;;13.70;80.10;;;;;;4489656;26;20015;-52
2024/04/19 06:38:23;;;;;;;6.68;1.60;;;13.70;80.20;;;;;;4497836;26;20013;-53
2024/04/19 06:41:08;;;;;;;8.25;1.38;;;13.70;80.20;;;;;;4472134;26;20040;-52
2024/04/19 06:43:53;;;;;;;10.93;1.58;;;13.70;80.20;;;;;;4458240;26;20013;-52
2024/04/19 06:46:37;;;;;;;7.72;1.70;;;13.70;80.20;;;;;;4464117;26;20057;-48
2024/04/19 06:49:21;;;;;;;6.55;1.20;;;13.70;80.50;;;;;;4465304;26;20088;-52
2024/04/19 06:52:04;;;;;;;8.85;1.30;;;13.90;80.90;;;;;;4492334;26;20018;-53
2024/04/19 06:54:48;;;;;;;3.35;0.90;;;14.20;79.80;;;;;;4465747;26;20043;-52
2024/04/19 06:57:38;;;;;;;5.88;1.15;;;14.70;78.00;;;;;;4464763;26;20044;-50
2024/04/19 07:00:21;;;;;;;7.72;1.60;;;15.30;75.70;;;;;;4465782;26;20014;-49
2024/04/19 07:03:08;;;;;;;7.03;1.05;;;15.90;73.40;;;;;;4494382;26;20009;-46
2024/04/19 07:05:52;;;;;;;9.98;1.73;;;16.50;71.10;;;;;;4463768;26;20018;-46
2024/04/19 07:08:34;;;;;;;4.90;1.17;;;17.10;68.60;;;;;;4469720;26;20075;-45
2024/04/19 07:11:17;;;;;;;7.38;1.38;;;17.60;66.40;;;;;;4495872;26;20545;-46
2024/04/19 07:14:03;;;;;;;2.88;1.13;;;18.00;64.90;;;;;;4490221;26;20075;-48
2024/04/19 07:16:46;;;;;;;2.78;0.82;;;18.20;63.80;;;;;;4483470;26;20077;-45
2024/04/19 07:19:30;;;;;;;5.32;1.20;;;18.30;63.10;;;;;;4486170;26;20014;-48
2024/04/19 07:22:14;;;;;;;5.60;1.13;;;18.30;63.00;;;;;;4471224;26;20479;-46
2024/04/19 07:24:57;;;;;;;5.35;1.33;;;18.20;62.90;;;;;;4468370;26;20134;-51
2024/04/19 07:27:40;;;;;;;5.97;1.17;;;18.10;63.20;;;;;;4480369;26;20036;-46
2024/04/19 07:30:28;;;;;;;7.00;1.20;;;18.00;63.70;;;;;;4457454;26;20418;-45
2024/04/19 07:33:13;;;;;;;5.28;1.40;;;17.90;63.90;;;;;;4451353;26;20010;-46
2024/04/19 07:35:56;;;;;;;5.72;1.35;;;17.80;64.10;;;;;;4463085;26;20341;-51
2024/04/19 07:38:40;;;;;;;7.53;1.50;;;17.80;64.40;;;;;;4460395;26;20043;-51
2024/04/19 07:41:25;;;;;;;5.43;1.20;;;17.70;65.50;;;;;;4461138;26;20011;-54
2024/04/19 07:44:08;;;;;;;5.40;1.73;;;17.70;65.90;;;;;;4468787;26;20009;-55
2024/04/19 07:46:54;;;;;;;5.45;1.75;;;17.80;66.50;;;;;;4477675;26;20006;-52
2024/04/19 07:49:42;;;;;;;3.85;1.05;;;17.80;66.40;;;;;;4457623;26;20015;-45
2024/04/19 07:52:28;;;;;;;5.75;1.10;;;17.90;66.70;;;;;;4461953;26;20038;-47
2024/04/19 07:55:11;;;;;;;2.47;1.00;;;17.90;66.60;;;;;;4457084;26;20038;-53
2024/04/19 07:57:54;;;;;;;7.68;2.03;;;17.90;66.70;;;;;;4463395;26;20022;-52
2024/04/19 08:00:38;;;;;;;8.43;1.85;;;18.00;66.40;;;;;;4465643;26;20018;-51
2024/04/19 08:03:24;;;;;;;7.30;1.30;;;18.00;66.10;;;;;;4471607;26;20462;-48
2024/04/19 08:06:08;;;;;;;3.30;1.45;;;18.00;66.00;;;;;;4490277;26;20465;-47
2024/04/19 08:08:56;;;;;;;5.32;1.42;;;18.00;65.90;;;;;;4494549;26;20018;-47
2024/04/19 08:11:39;;;;;;;6.38;1.70;;;18.00;65.90;;;;;;4490217;26;20410;-50
2024/04/19 08:14:22;;;;;;;10.70;2.08;;;17.90;66.30;;;;;;4489214;26;20437;-46
2024/04/19 08:17:06;;;;;;;6.15;1.92;;;17.80;66.80;;;;;;4496860;26;20013;-55
2024/04/19 08:19:54;;;;;;;5.03;1.40;;;17.80;66.80;;;;;;4488374;26;20013;-52
2024/04/19 08:22:37;;;;;;;3.58;1.88;;;17.80;66.80;;;;;;4493147;26;20417;-51
2024/04/19 08:25:20;;;;;;;3.72;1.23;;;17.80;66.40;;;;;;4474865;26;20021;-46
2024/04/19 08:28:03;;;;;;;6.97;2.03;;;17.80;66.40;;;;;;4483829;26;20036;-45
2024/04/19 08:30:48;;;;;;;5.53;1.55;;;17.80;66.50;;;;;;4493743;26;20010;-46
2024/04/19 08:33:31;;;;;;;9.65;2.03;;;17.70;66.80;;;;;;4489320;26;20080;-49
2024/04/19 08:36:17;;;;;;;4.97;1.60;;;17.70;66.80;;;;;;4465228;26;20065;-50
2024/04/19 08:39:00;;;;;;;4.93;1.33;;;17.70;67.10;;;;;;4441803;26;20018;-48
2024/04/19 08:41:44;;;;;;;9.38;1.83;;;17.60;67.10;;;;;;4466495;26;20010;-48
2024/04/19 08:44:27;;;;;;;6.32;1.67;;;17.60;67.40;;;;;;4464444;26;20014;-46
2024/04/19 08:47:12;;;;;;;6.75;1.45;;;17.60;67.70;;;;;;4464683;26;20018;-54
2024/04/19 08:49:57;;;;;;;7.43;1.55;;;17.60;67.60;;;;;;4470233;26;20022;-44
2024/04/19 08:52:47;;;;;;;5.40;1.50;;;17.60;67.60;;;;;;4496372;26;20079;-51
2024/04/19 08:55:41;;;;;;;7.05;2.42;;;17.60;67.60;;;;;;4484818;26;20006;-51
2024/04/19 08:58:24;;;;;;;6.00;2.00;;;17.70;67.60;;;;;;4476298;26;20399;-53
2024/04/19 09:01:08;;;;;;;8.15;1.80;;;17.70;67.40;;;;;;4476113;26;20014;-47
2024/04/19 09:03:55;;;;;;;5.47;1.60;;;17.70;67.20;;;;;;4481128;26;20022;-46
2024/04/19 09:06:38;;;;;;;6.75;1.42;;;17.70;67.10;;;;;;4476260;26;20103;-49
2024/04/19 09:09:26;;;;;;;4.35;2.00;;;17.70;66.90;;;;;;4479668;26;20014;-47
2024/04/19 09:12:10;;;;;;;4.93;1.38;;;17.70;66.60;;;;;;4493924;26;20010;-47
2024/04/19 09:14:54;;;;;;;6.32;1.50;;;17.70;66.70;;;;;;4489321;26;20017;-51
2024/04/19 09:17:37;;;;;;;3.35;1.35;;;17.70;66.70;;;;;;4479760;26;20475;-53
2024/04/19 09:20:20;;;;;;;4.45;1.70;;;17.80;66.70;;;;;;4487637;26;20005;-51
2024/04/19 09:23:03;;;;;;;3.65;1.10;;;17.80;65.90;;;;;;4493246;26;20009;-53
2024/04/19 09:25:54;;;;;;;8.05;2.13;;;17.80;66.10;;;;;;4495064;26;20417;-44
2024/04/19 09:28:39;;;;;;;5.80;2.10;;;17.80;66.40;;;;;;4492315;26;21375;-52
2024/04/19 09:31:26;;;;;;;2.25;1.10;;;17.80;66.10;;;;;;4481898;26;20580;-50
2024/04/19 09:34:10;;;;;;;3.33;0.98;;;17.80;65.70;;;;;;4453511;26;20080;-53
2024/04/19 09:36:54;;;;;;;3.38;1.25;;;17.80;65.90;;;;;;4466482;26;20077;-52
2024/04/19 09:39:39;;;;;;;3.88;1.05;;;17.80;66.00;;;;;;4465720;26;20036;-51
2024/04/19 09:42:28;;;;;;;3.55;1.00;;;17.80;65.60;;;;;;4468339;26;20076;-51
2024/04/19 09:45:13;;;;;;;1.60;1.48;;;17.80;65.60;;;;;;4492704;26;20419;-50
2024/04/19 09:47:57;;;;;;;4.60;1.33;;;17.80;65.60;;;;;;4493087;26;20147;-55
2024/04/19 09:50:42;;;;;;;1.35;1.00;;;17.90;65.70;;;;;;4478590;26;20041;-56
2024/04/19 09:53:30;;;;;;;5.60;2.30;;;18.00;65.80;;;;;;4467083;26;20015;-45
2024/04/19 09:56:24;;;;;;;7.75;1.88;;;18.10;64.60;;;;;;4465813;26;20125;-46
2024/04/19 09:59:15;;;;;;;4.80;1.77;;;18.20;65.00;;;;;;4464631;26;21357;-48
2024/04/19 10:02:00;;;;;;;4.75;1.98;;;18.20;65.20;;;;;;4484873;26;20753;-47
2024/04/19 10:04:44;;;;;;;5.20;1.38;;;18.30;64.80;;;;;;4468757;26;20076;-55
2024/04/19 10:07:28;;;;;;;6.22;1.38;;;18.40;64.40;;;;;;4454930;26;20086;-53
2024/04/19 10:10:11;;;;;;;7.15;1.33;;;18.40;64.40;;;;;;4482025;26;20014;-54
2024/04/19 10:12:55;;;;;;;4.25;1.95;;;18.50;65.40;;;;;;4482786;26;20080;-53
2024/04/19 10:15:41;;;;;;;8.98;1.67;;;18.50;64.30;;;;;;4462851;26;20010;-46
2024/04/19 10:18:25;;;;;;;8.52;1.73;;;18.40;64.40;;;;;;4464349;26;20018;-52
2024/04/19 10:21:08;;;;;;;2.72;0.77;;;18.40;64.70;;;;;;4478865;26;20142;-48
2024/04/19 10:23:51;;;;;;;3.80;1.40;;;18.40;64.90;;;;;;4488164;26;20011;-49
2024/04/19 10:26:35;;;;;;;3.42;1.17;;;18.40;64.40;;;;;;4464898;26;20082;-48
2024/04/19 10:29:20;;;;;;;1.80;1.33;;;18.40;64.50;;;;;;4478684;26;20014;-53
2024/04/19 10:32:06;;;;;;;5.55;1.25;;;18.30;64.20;;;;;;4477355;26;20334;-56
2024/04/19 10:34:50;;;;;;;4.85;1.55;;;18.30;64.40;;;;;;4497023;26;20515;-54
2024/04/19 10:37:33;;;;;;;2.65;1.15;;;18.20;63.80;;;;;;4475463;26;20070;-45
2024/04/19 10:40:17;;;;;;;4.75;1.38;;;18.10;64.60;;;;;;4474208;26;20087;-53
2024/04/19 10:43:05;;;;;;;6.40;1.80;;;18.20;64.90;;;;;;4478173;26;20079;-47
2024/04/19 10:45:49;;;;;;;4.85;1.13;;;18.20;65.40;;;;;;4473190;26;20500;-52
2024/04/19 10:48:34;;;;;;;8.90;1.45;;;18.20;65.50;;;;;;4460757;26;20074;-54
2024/04/19 10:51:20;;;;;;;7.22;1.67;;;18.20;65.50;;;;;;4458005;26;20013;-53
2024/04/19 10:54:03;;;;;;;8.57;1.75;;;18.20;65.40;;;;;;4475493;26;20404;-54
2024/04/19 10:56:46;;;;;;;6.18;1.83;;;18.20;65.50;;;;;;4482094;26;20005;-53
2024/04/19 10:59:29;;;;;;;12.00;2.05;;;18.10;65.90;;;;;;4470749;26;20010;-54
2024/04/19 11:02:18;;;;;;;6.40;1.75;;;18.00;65.60;;;;;;4495223;26;20009;-53
2024/04/19 11:05:04;;;;;;;8.85;2.47;;;18.00;66.20;;;;;;4497374;26;20129;-54
2024/04/19 11:07:47;;;;;;;14.52;1.83;;;17.90;66.70;;;;;;4473356;26;20010;-45
2024/04/19 11:10:31;;;;;;;4.80;1.90;;;17.90;65.80;;;;;;4481645;26;20076;-45
2024/04/19 11:13:14;;;;;;;6.63;2.03;;;17.90;65.60;;;;;;4478342;26;20090;-43
2024/04/19 11:15:59;;;;;;;5.32;1.67;;;17.90;64.20;;;;;;4492011;26;20075;-53
2024/04/19 11:18:43;;;;;;;10.77;2.10;;;17.90;65.00;;;;;;4483593;26;20478;-55
2024/04/19 11:21:28;;;;;;;9.00;2.20;;;17.90;65.10;;;;;;4496174;26;20009;-43
2024/04/19 11:24:12;;;;;;;10.20;2.90;;;17.90;64.90;;;;;;4490863;26;20441;-45
2024/04/19 11:26:58;;;;;;;8.77;2.47;;;17.90;64.00;;;;;;4476580;26;20015;-51
2024/04/19 11:29:41;;;;;;;6.30;2.80;;;17.90;63.00;;;;;;4477293;26;20017;-48
2024/04/19 11:32:26;;;;;;;6.65;2.45;;;17.90;63.60;;;;;;4494719;26;20014;-45
2024/04/19 11:35:12;;;;;;;4.95;1.55;;;17.90;64.70;;;;;;4496136;26;20071;-52
2024/04/19 11:38:00;;;;;;;7.90;1.80;;;17.90;64.10;;;;;;4487872;26;20016;-45
2024/04/19 11:40:44;;;;;;;10.73;2.88;;;18.00;64.80;;;;;;4490781;26;20013;-45
2024/04/19 11:43:27;;;;;;;8.35;2.95;;;18.00;63.80;;;;;;4471884;26;20544;-46
2024/04/19 11:46:10;;;;;;;4.95;2.17;;;18.10;64.20;;;;;;4464701;26;20021;-45
2024/04/19 11:48:53;;;;;;;6.25;2.58;;;18.20;63.90;;;;;;4483620;26;20660;-54
2024/04/19 11:51:37;;;;;;;3.95;2.40;;;18.20;62.90;;;;;;4510162;26;20036;-44
2024/04/19 11:54:31;;;;;;;6.95;1.80;;;18.20;61.50;;;;;;4490355;26;20326;-45
2024/04/19 11:57:14;;;;;;;9.48;2.95;;;18.10;63.00;;;;;;4493896;26;20049;-55
2024/04/19 11:59:58;;;;;;;4.57;2.03;;;18.10;63.70;;;;;;4482429;26;20013;-44
2024/04/19 12:02:41;;;;;;;9.82;2.30;;;18.00;62.30;;;;;;4475478;26;20021;-44
2024/04/19 12:05:25;;;;;;;9.30;2.25;;;18.00;60.70;;;;;;4447377;26;20095;-45
2024/04/19 12:08:09;;;;;;;5.15;1.85;;;18.00;60.30;;;;;;4440615;26;20346;-44
2024/04/19 12:10:55;;;;;;;3.72;2.22;;;18.00;62.40;;;;;;4454554;26;20081;-44
2024/04/19 12:13:38;;;;;;;4.05;1.40;;;17.90;60.20;;;;;;4464173;26;20043;-52
2024/04/19 12:16:26;;;;;;;3.45;1.80;;;17.90;61.20;;;;;;4463038;26;20073;-54
2024/04/19 12:19:12;;;;;;;3.95;1.45;;;17.80;59.80;;;;;;4468144;26;20022;-45
2024/04/19 12:21:55;;;;;;;10.30;1.52;;;17.80;60.90;;;;;;4489777;26;20039;-54
2024/04/19 12:24:39;;;;;;;10.38;1.80;;;17.80;59.90;;;;;;4489516;26;20084;-46
2024/04/19 12:27:26;;;;;;;5.30;2.13;;;17.70;58.60;;;;;;4491077;26;20354;-45
2024/04/19 12:30:10;;;;;;;3.25;1.55;;;17.70;58.10;;;;;;4461249;26;20014;-53
2024/04/19 12:32:54;;;;;;;6.05;2.08;;;17.60;59.80;;;;;;4461051;26;20014;-45
2024/04/19 12:35:37;;;;;;;6.95;1.85;;;17.60;58.70;;;;;;4462184;26;20077;-44
2024/04/19 12:38:21;;;;;;;10.35;2.63;;;17.50;60.30;;;;;;4471081;26;20010;-44
2024/04/19 12:41:04;;;;;;;9.80;2.15;;;17.60;61.00;;;;;;4492808;26;20035;-45
2024/04/19 12:43:52;;;;;;;11.70;2.90;;;17.60;60.40;;;;;;4476450;26;20043;-51
2024/04/19 12:46:36;;;;;;;6.82;2.08;;;17.70;61.70;;;;;;4491908;26;20077;-50
2024/04/19 12:49:22;;;;;;;6.88;1.88;;;17.70;60.30;;;;;;4459197;26;20062;-56
2024/04/19 12:52:06;;;;;;;7.30;2.03;;;17.80;59.60;;;;;;4451257;26;20397;-43
2024/04/19 12:54:49;;;;;;;6.78;1.92;;;17.80;60.90;;;;;;4478553;26;20035;-45
2024/04/19 12:57:32;;;;;;;5.63;2.15;;;17.80;59.70;;;;;;4482870;26;20100;-45
2024/04/19 13:00:21;;;;;;;9.80;2.33;;;17.70;59.20;;;;;;4473444;26;20412;-43
2024/04/19 13:03:04;;;;;;;12.32;2.80;;;17.60;58.90;;;;;;4489824;26;20741;-43
2024/04/19 13:05:52;;;;;;;8.27;1.98;;;17.60;60.20;;;;;;4467202;26;20014;-52
2024/04/19 13:08:35;;;;;;;7.00;2.65;;;17.60;60.30;;;;;;4473445;26;20076;-45
2024/04/19 13:11:21;;;;;;;5.97;1.77;;;17.50;59.50;;;;;;4498144;26;20005;-46
2024/04/19 13:14:04;;;;;;;7.07;2.30;;;17.50;59.60;;;;;;4493021;26;20075;-50
2024/04/19 13:16:50;;;;;;;6.35;2.42;;;17.50;58.50;;;;;;4473374;26;20006;-44
2024/04/19 13:19:33;;;;;;;4.20;1.38;;;17.40;58.60;;;;;;4443747;26;20050;-44
2024/04/19 13:22:16;;;;;;;6.00;1.83;;;17.40;58.20;;;;;;4463162;26;20334;-43
2024/04/19 13:25:00;;;;;;;5.82;1.48;;;17.30;57.40;;;;;;4471051;26;20057;-50
2024/04/19 13:27:44;;;;;;;6.00;1.85;;;17.30;57.20;;;;;;4465067;26;20065;-50
2024/04/19 13:30:28;;;;;;;6.18;1.58;;;17.20;57.50;;;;;;4468821;26;20013;-52
2024/04/19 13:33:19;;;;;;;5.65;1.70;;;17.10;57.70;;;;;;4470266;26;20022;-44
2024/04/19 13:36:02;;;;;;;5.00;1.40;;;17.00;57.60;;;;;;4466845;26;20903;-50
2024/04/19 13:38:46;;;;;;;5.85;1.92;;;17.00;57.10;;;;;;4485626;26;20747;-45
2024/04/19 13:41:31;;;;;;;4.47;1.63;;;16.90;57.10;;;;;;4497110;26;20021;-45
2024/04/19 13:44:14;;;;;;;6.50;1.55;;;16.80;58.90;;;;;;4498722;26;20080;-44
2024/04/19 13:46:58;;;;;;;9.43;2.13;;;16.70;58.70;;;;;;4494712;26;20118;-55
2024/04/19 13:49:45;;;;;;;5.53;1.88;;;16.70;57.50;;;;;;4447427;26;20021;-45
2024/04/19 13:52:29;;;;;;;7.32;1.52;;;16.60;58.80;;;;;;4473463;26;20075;-44
2024/04/19 13:55:12;;;;;;;5.72;1.25;;;16.50;58.40;;;;;;4492659;26;20009;-46
2024/04/19 13:57:56;;;;;;;6.55;1.75;;;16.50;58.20;;;;;;4491051;26;20166;-53
2024/04/19 14:00:39;;;;;;;4.70;1.92;;;16.40;58.50;;;;;;4496175;26;20379;-44
2024/04/19 14:03:23;;;;;;;2.15;0.77;;;16.40;59.60;;;;;;4494365;26;20534;-44
2024/04/19 14:06:09;;;;;;;8.75;1.92;;;16.30;60.60;;;;;;4479059;26;20018;-46
2024/04/19 14:08:56;;;;;;;6.10;1.90;;;16.30;61.20;;;;;;4473820;26;20433;-51
2024/04/19 14:11:39;;;;;;;8.43;1.80;;;16.20;61.10;;;;;;4497606;26;20029;-52
2024/04/19 14:14:23;;;;;;;5.88;1.50;;;16.20;61.30;;;;;;4490679;26;20014;-53
2024/04/19 14:17:08;;;;;;;7.63;1.55;;;16.20;61.20;;;;;;4467228;26;20043;-45